QJE1523 YSCB-YMML

Flight info

Callsign QJE1523
Flight time 0h 54m
Altitude 34000
Route CB Q215 TANTA Q29 ML
Aircraft E190/M-SDE3GILORVW/S

Departure

Time 2026-05-07 10:53
Airport Canberra Airport (YSCB)

Arrival

Time 2026-05-07 11:47
Airport Melbourne Airport (YMML)
Time Latitude Longitude Altitude Speed Heading
2026-05-07 10:44 -35.30879 149.19128 1878 ft 0 kts 271°
2026-05-07 10:44 -35.30880 149.19149 1878 ft 3 kts 269°
2026-05-07 10:45 -35.30879 149.19175 1878 ft 3 kts 264°
2026-05-07 10:45 -35.30875 149.19202 1876 ft 3 kts 254°
2026-05-07 10:45 -35.30868 149.19227 1876 ft 3 kts 229°
2026-05-07 10:45 -35.30854 149.19239 1876 ft 1 kts 180°
2026-05-07 10:46 -35.30853 149.19239 1876 ft 3 kts 180°
2026-05-07 10:47 -35.30854 149.19239 1876 ft 0 kts 180°
2026-05-07 10:47 -35.30856 149.19239 1875 ft 0 kts 180°
2026-05-07 10:48 -35.30870 149.19239 1876 ft 4 kts 180°
2026-05-07 10:48 -35.30900 149.19239 1877 ft 5 kts 180°
2026-05-07 10:48 -35.30937 149.19239 1875 ft 6 kts 180°
2026-05-07 10:48 -35.30981 149.19239 1878 ft 7 kts 180°
2026-05-07 10:49 -35.31035 149.19239 1878 ft 11 kts 180°
2026-05-07 10:49 -35.31116 149.19239 1878 ft 12 kts 180°
2026-05-07 10:49 -35.31204 149.19239 1878 ft 13 kts 180°
2026-05-07 10:49 -35.31296 149.19239 1878 ft 13 kts 180°
2026-05-07 10:50 -35.31392 149.19239 1877 ft 13 kts 178°
2026-05-07 10:50 -35.31453 149.19306 1878 ft 13 kts 117°
2026-05-07 10:50 -35.31463 149.19358 1878 ft 3 kts 90°
2026-05-07 10:50 -35.31464 149.19387 1878 ft 4 kts 90°
2026-05-07 10:51 -35.31446 149.19430 1876 ft 8 kts 43°
2026-05-07 10:51 -35.31384 149.19442 1878 ft 0 kts 358°
2026-05-07 10:52 -35.31381 149.19442 1878 ft 3 kts
2026-05-07 10:52 -35.31143 149.19446 1878 ft 68 kts
2026-05-07 10:52 -35.30447 149.19442 1878 ft 130 kts 360°
2026-05-07 10:52 -35.29357 149.19437 1978 ft 178 kts 357°
2026-05-07 10:53 -35.28058 149.19391 2668 ft 194 kts 357°
2026-05-07 10:53 -35.26693 149.19556 3642 ft 204 kts
2026-05-07 10:53 -35.25281 149.19850 4600 ft 208 kts
2026-05-07 10:53 -35.23786 149.20112 5322 ft 224 kts
2026-05-07 10:54 -35.22210 149.20374 6186 ft 231 kts
2026-05-07 10:54 -35.20573 149.20590 6830 ft 248 kts
2026-05-07 10:54 -35.18669 149.20710 6642 ft 303 kts 358°
2026-05-07 10:54 -35.16351 149.20911 6361 ft 363 kts
2026-05-07 10:55 -35.13788 149.21226 7443 ft 371 kts
2026-05-07 10:55 -35.11188 149.21519 8525 ft 377 kts
2026-05-07 10:55 -35.08736 149.21261 9169 ft 331 kts 338°
2026-05-07 10:55 -35.06918 149.20016 9814 ft 289 kts 308°
2026-05-07 10:56 -35.05900 149.18047 10485 ft 265 kts 276°
2026-05-07 10:56 -35.05894 149.15954 11173 ft 236 kts 242°
2026-05-07 10:56 -35.06817 149.14486 11897 ft 211 kts 205°
2026-05-07 10:56 -35.08145 149.13837 12639 ft 203 kts 198°
2026-05-07 10:57 -35.09458 149.13283 13330 ft 199 kts 199°
2026-05-07 10:57 -35.10794 149.12485 13089 ft 234 kts 214°
2026-05-07 10:57 -35.12043 149.11135 13447 ft 246 kts 220°
2026-05-07 10:57 -35.13225 149.09584 13823 ft 259 kts 223°
2026-05-07 10:58 -35.14421 149.07881 14133 ft 270 kts 225°
2026-05-07 10:58 -35.15554 149.05972 14435 ft 284 kts 231°
2026-05-07 10:58 -35.16640 149.03914 14701 ft 292 kts 232°
2026-05-07 10:58 -35.17729 149.01802 14972 ft 295 kts 232°
2026-05-07 10:59 -35.18813 148.99676 15242 ft 294 kts 232°
2026-05-07 10:59 -35.19901 148.97553 15522 ft 295 kts 232°
2026-05-07 10:59 -35.21250 148.95735 15791 ft 288 kts 210°
2026-05-07 10:59 -35.23054 148.94699 16076 ft 288 kts 201°
2026-05-07 11:00 -35.24961 148.93920 16360 ft 290 kts 197°
2026-05-07 11:00 -35.26880 148.93281 16632 ft 290 kts 196°
2026-05-07 11:00 -35.28863 148.92683 16943 ft 298 kts 195°
2026-05-07 11:00 -35.30902 148.92101 17383 ft 303 kts 195°
2026-05-07 11:01 -35.32972 148.91565 17913 ft 305 kts 192°
2026-05-07 11:01 -35.35084 148.91188 18449 ft 308 kts 191°
2026-05-07 11:01 -35.37213 148.90823 18907 ft 310 kts 191°
2026-05-07 11:01 -35.39363 148.90464 19358 ft 313 kts 191°
2026-05-07 11:02 -35.41504 148.90105 19812 ft 316 kts 191°
2026-05-07 11:02 -35.43692 148.89746 20292 ft 319 kts 191°
2026-05-07 11:02 -35.45894 148.89385 20797 ft 320 kts 192°
2026-05-07 11:02 -35.48105 148.89013 21282 ft 321 kts 192°
2026-05-07 11:03 -35.50320 148.88645 21798 ft 321 kts 192°
2026-05-07 11:03 -35.52534 148.88277 22342 ft 321 kts 192°
2026-05-07 11:03 -35.54747 148.87910 22871 ft 320 kts 193°
2026-05-07 11:03 -35.56951 148.87544 23401 ft 319 kts 193°
2026-05-07 11:04 -35.59145 148.87181 23930 ft 318 kts 193°
2026-05-07 11:04 -35.61331 148.86817 24375 ft 316 kts 193°
2026-05-07 11:04 -35.63478 148.86457 24838 ft 315 kts 193°
2026-05-07 11:04 -35.65641 148.86087 25311 ft 312 kts 196°
2026-05-07 11:05 -35.67690 148.85331 25798 ft 304 kts 208°
2026-05-07 11:05 -35.69469 148.83988 26304 ft 298 kts 221°
2026-05-07 11:05 -35.70950 148.82227 26814 ft 294 kts 226°
2026-05-07 11:05 -35.72321 148.80375 27309 ft 291 kts 227°
2026-05-07 11:06 -35.73620 148.78496 27802 ft 286 kts 231°
2026-05-07 11:06 -35.74775 148.76520 28320 ft 282 kts 232°
2026-05-07 11:06 -35.75891 148.74602 28807 ft 277 kts 232°
2026-05-07 11:06 -35.76990 148.72685 29333 ft 271 kts 233°
2026-05-07 11:07 -35.78059 148.70803 29854 ft 265 kts 233°
2026-05-07 11:07 -35.79104 148.68962 30385 ft 259 kts 233°
2026-05-07 11:07 -35.80123 148.67167 30830 ft 252 kts 232°
2026-05-07 11:07 -35.81134 148.65390 30964 ft 256 kts 232°
2026-05-07 11:08 -35.82159 148.63590 31097 ft 258 kts 232°
2026-05-07 11:08 -35.83202 148.61753 31178 ft 266 kts 233°
2026-05-07 11:08 -35.84280 148.59853 31223 ft 275 kts 233°
2026-05-07 11:08 -35.85381 148.57913 31286 ft 285 kts 233°
2026-05-07 11:09 -35.86542 148.55873 31286 ft 296 kts 233°
2026-05-07 11:09 -35.87742 148.53750 31300 ft 307 kts 233°
2026-05-07 11:09 -35.88988 148.51547 31312 ft 319 kts 233°
2026-05-07 11:09 -35.90276 148.49265 31303 ft 330 kts 233°
2026-05-07 11:10 -35.91612 148.46904 31283 ft 341 kts 233°
2026-05-07 11:10 -35.92991 148.44462 31282 ft 352 kts 233°
2026-05-07 11:10 -35.94412 148.41946 31267 ft 363 kts 234°
2026-05-07 11:10 -35.95852 148.39387 31275 ft 373 kts 233°
2026-05-07 11:11 -35.98890 148.33990 31273 ft 392 kts 234°
2026-05-07 11:11 -36.02076 148.28334 31265 ft 408 kts 234°
2026-05-07 11:12 -36.05281 148.22617 31247 ft 408 kts 234°
2026-05-07 11:12 -36.08514 148.16851 31252 ft 408 kts 234°
2026-05-07 11:13 -36.11738 148.11086 31242 ft 407 kts 234°
2026-05-07 11:13 -36.14933 148.05365 31249 ft 407 kts 234°
2026-05-07 11:14 -36.18147 147.99606 31236 ft 406 kts 234°
2026-05-07 11:14 -36.21348 147.93853 31256 ft 406 kts 234°
2026-05-07 11:15 -36.24543 147.88103 31238 ft 405 kts 234°
2026-05-07 11:15 -36.27709 147.82400 31250 ft 404 kts 235°
2026-05-07 11:16 -36.30890 147.76656 31247 ft 404 kts 235°
2026-05-07 11:16 -36.34056 147.70926 31261 ft 403 kts 235°
2026-05-07 11:17 -36.37219 147.65196 31213 ft 402 kts 235°
2026-05-07 11:17 -36.40372 147.59481 31274 ft 401 kts 235°
2026-05-07 11:18 -36.43497 147.53795 31254 ft 401 kts 235°
2026-05-07 11:18 -36.46643 147.48074 31254 ft 401 kts 236°
2026-05-07 11:19 -36.49784 147.42347 31245 ft 401 kts 235°
2026-05-07 11:19 -36.52918 147.36616 31225 ft 400 kts 236°
2026-05-07 11:20 -36.56025 147.30928 31252 ft 400 kts 236°
2026-05-07 11:20 -36.59149 147.25212 31253 ft 399 kts 236°
2026-05-07 11:21 -36.62264 147.19483 31250 ft 400 kts 236°
2026-05-07 11:21 -36.65383 147.13749 31254 ft 400 kts 236°
2026-05-07 11:22 -36.68510 147.08012 31219 ft 400 kts 236°
2026-05-07 11:22 -36.71586 147.02305 31254 ft 399 kts 236°
2026-05-07 11:23 -36.74695 146.96564 31242 ft 400 kts 236°
2026-05-07 11:23 -36.77798 146.90820 31266 ft 399 kts 236°
2026-05-07 11:24 -36.80921 146.85034 31289 ft 406 kts 236°
2026-05-07 11:24 -36.84060 146.79197 31232 ft 403 kts 236°
2026-05-07 11:25 -36.87166 146.73416 31241 ft 404 kts 237°
2026-05-07 11:25 -36.90283 146.67598 31246 ft 402 kts 237°
2026-05-07 11:26 -36.93390 146.61797 31267 ft 401 kts 237°
2026-05-07 11:26 -36.96492 146.55996 31244 ft 401 kts 237°
2026-05-07 11:27 -36.99586 146.50197 31249 ft 400 kts 237°
2026-05-07 11:27 -37.02649 146.44450 31244 ft 400 kts 237°
2026-05-07 11:28 -37.05726 146.38661 31296 ft 399 kts 237°
2026-05-07 11:28 -37.08797 146.32877 31265 ft 399 kts 237°
2026-05-07 11:29 -37.11863 146.27091 31250 ft 398 kts 237°
2026-05-07 11:29 -37.14922 146.21312 31248 ft 398 kts 237°
2026-05-07 11:30 -37.17956 146.15568 31253 ft 397 kts 237°
2026-05-07 11:30 -37.21005 146.09787 31269 ft 398 kts 237°
2026-05-07 11:31 -37.24047 146.03993 31220 ft 398 kts 238°
2026-05-07 11:31 -37.27118 145.98153 31260 ft 404 kts 237°
2026-05-07 11:32 -37.31757 145.89304 31256 ft 403 kts 238°
2026-05-07 11:33 -37.34844 145.83421 31260 ft 404 kts 238°
2026-05-07 11:33 -37.37917 145.77524 31239 ft 403 kts 237°
2026-05-07 11:34 -37.40987 145.71634 31254 ft 402 kts 237°
2026-05-07 11:34 -37.44015 145.65768 31240 ft 402 kts 237°
2026-05-07 11:35 -37.47103 145.59911 31253 ft 401 kts 237°
2026-05-07 11:35 -37.50186 145.54039 31069 ft 402 kts 237°
2026-05-07 11:35 -37.51707 145.51137 30407 ft 386 kts 237°
2026-05-07 11:36 -37.53130 145.48421 29675 ft 357 kts 237°
2026-05-07 11:36 -37.54447 145.45897 28931 ft 334 kts 237°
2026-05-07 11:36 -37.55671 145.43559 28276 ft 315 kts 237°
2026-05-07 11:36 -37.56842 145.41314 27567 ft 299 kts 236°
2026-05-07 11:37 -37.57965 145.39158 26891 ft 292 kts 236°
2026-05-07 11:37 -37.59084 145.37017 26251 ft 293 kts 236°
2026-05-07 11:37 -37.60201 145.34860 25618 ft 293 kts 235°
2026-05-07 11:37 -37.61323 145.32726 25038 ft 290 kts 234°
2026-05-07 11:38 -37.62428 145.30606 24454 ft 288 kts 234°
2026-05-07 11:38 -37.63443 145.28429 23893 ft 288 kts 240°
2026-05-07 11:38 -37.64227 145.26096 23204 ft 289 kts 245°
2026-05-07 11:38 -37.64843 145.23713 21858 ft 294 kts 249°
2026-05-07 11:39 -37.65224 145.21128 20503 ft 303 kts 255°
2026-05-07 11:39 -37.65492 145.18466 19227 ft 307 kts 255°
2026-05-07 11:39 -37.65782 145.15785 17914 ft 309 kts 255°
2026-05-07 11:39 -37.66224 145.13170 16533 ft 300 kts 242°
2026-05-07 11:40 -37.67147 145.10844 15218 ft 295 kts 237°
2026-05-07 11:40 -37.68319 145.08772 13937 ft 288 kts 220°
2026-05-07 11:40 -37.69963 145.07351 12538 ft 285 kts 211°
2026-05-07 11:40 -37.71737 145.06341 11217 ft 283 kts 204°
2026-05-07 11:41 -37.73354 145.04985 9897 ft 282 kts 227°
2026-05-07 11:41 -37.74254 145.02780 8497 ft 289 kts 253°
2026-05-07 11:41 -37.74203 145.00218 7137 ft 301 kts 279°
2026-05-07 11:41 -37.73179 144.97864 5788 ft 315 kts 305°
2026-05-07 11:42 -37.71652 144.95902 4436 ft 307 kts 303°
2026-05-07 11:42 -37.70434 144.93770 3121 ft 292 kts 290°
2026-05-07 11:42 -37.69547 144.91576 2468 ft 269 kts 299°
2026-05-07 11:42 -37.68254 144.90048 2369 ft 248 kts 326°
2026-05-07 11:43 -37.66683 144.89647 2560 ft 222 kts
2026-05-07 11:43 -37.65384 144.90462 2862 ft 208 kts 46°
2026-05-07 11:43 -37.64777 144.92047 3226 ft 199 kts 85°
2026-05-07 11:43 -37.64741 144.93766 3486 ft 191 kts 114°
2026-05-07 11:44 -37.65449 144.94924 3505 ft 152 kts 168°
2026-05-07 11:44 -37.66264 144.94725 3355 ft 122 kts 242°
2026-05-07 11:44 -37.66449 144.93614 2841 ft 133 kts 256°
2026-05-07 11:44 -37.66505 144.92839 2512 ft 132 kts 262°
2026-05-07 11:45 -37.66474 144.91301 2399 ft 139 kts 265°
2026-05-07 11:45 -37.66494 144.90121 2062 ft 134 kts 266°
2026-05-07 11:45 -37.66473 144.88941 1766 ft 138 kts 270°
2026-05-07 11:45 -37.66395 144.87690 1175 ft 143 kts 272°
2026-05-07 11:46 -37.66346 144.86436 743 ft 137 kts 272°
2026-05-07 11:46 -37.66260 144.85255 559 ft 135 kts 274°
2026-05-07 11:46 -37.66199 144.84138 413 ft 115 kts 274°
2026-05-07 11:46 -37.66162 144.83561 415 ft 82 kts 275°
2026-05-07 11:47 -37.66169 144.82943 406 ft 35 kts 248°
2026-05-07 11:47 -37.66261 144.82727 393 ft 28 kts 226°
2026-05-07 11:47 -37.66385 144.82700 388 ft 30 kts 155°
2026-05-07 11:47 -37.66455 144.82967 388 ft 23 kts 95°
2026-05-07 11:48 -37.66464 144.83091 393 ft 20 kts 95°
2026-05-07 11:48 -37.66477 144.83312 400 ft 18 kts 94°
2026-05-07 11:48 -37.66482 144.83412 402 ft 17 kts 94°
2026-05-07 11:48 -37.66490 144.83560 401 ft 17 kts 95°
2026-05-07 11:49 -37.66500 144.83713 404 ft 18 kts 94°
2026-05-07 11:49 -37.66509 144.83879 402 ft 20 kts 94°
2026-05-07 11:49 -37.66521 144.84054 402 ft 21 kts 95°
2026-05-07 11:49 -37.66533 144.84240 402 ft 22 kts 94°
2026-05-07 11:50 -37.66513 144.84430 403 ft 22 kts 83°
2026-05-07 11:50 -37.66483 144.84667 406 ft 10 kts 78°
2026-05-07 11:50 -37.66481 144.84724 406 ft 10 kts 96°
2026-05-07 11:50 -37.66531 144.84790 405 ft 12 kts 159°
2026-05-07 11:51 -37.66621 144.84809 402 ft 6 kts 183°
2026-05-07 11:51 -37.66671 144.84806 398 ft 9 kts 165°
2026-05-07 11:51 -37.66692 144.84843 400 ft 2 kts 76°
2026-05-07 11:51 -37.66684 144.84871 400 ft 5 kts 74°
2026-05-07 11:52 -37.66680 144.84900 400 ft 2 kts 82°
2026-05-07 11:52 -37.66680 144.84901 400 ft 0 kts 82°
2026-05-07 11:53 -37.66680 144.84900 400 ft 0 kts 82°